sensor_id;sensor_type;location;lat;lon;timestamp;temperature;humidity
7447;DHT22;3765;47.962;7.952;2023-03-23T00:02:01;12.30;59.80
7447;DHT22;3765;47.962;7.952;2023-03-23T00:04:28;12.40;59.80
7447;DHT22;3765;47.962;7.952;2023-03-23T00:06:56;12.40;59.80
7447;DHT22;3765;47.962;7.952;2023-03-23T00:09:23;12.30;60.00
7447;DHT22;3765;47.962;7.952;2023-03-23T00:11:50;12.30;60.20
7447;DHT22;3765;47.962;7.952;2023-03-23T00:14:23;12.40;60.10
7447;DHT22;3765;47.962;7.952;2023-03-23T00:16:50;12.40;60.00
7447;DHT22;3765;47.962;7.952;2023-03-23T00:19:19;12.30;60.10
7447;DHT22;3765;47.962;7.952;2023-03-23T00:21:46;12.30;60.20
7447;DHT22;3765;47.962;7.952;2023-03-23T00:24:14;12.30;60.20
7447;DHT22;3765;47.962;7.952;2023-03-23T00:26:45;12.50;59.90
7447;DHT22;3765;47.962;7.952;2023-03-23T00:29:15;12.60;59.70
7447;DHT22;3765;47.962;7.952;2023-03-23T00:31:43;12.70;59.70
7447;DHT22;3765;47.962;7.952;2023-03-23T00:34:13;12.80;59.50
7447;DHT22;3765;47.962;7.952;2023-03-23T00:36:47;12.70;59.60
7447;DHT22;3765;47.962;7.952;2023-03-23T00:39:15;12.80;59.60
7447;DHT22;3765;47.962;7.952;2023-03-23T00:41:43;12.80;59.50
7447;DHT22;3765;47.962;7.952;2023-03-23T00:44:11;12.90;59.20
7447;DHT22;3765;47.962;7.952;2023-03-23T00:46:42;13.00;59.10
7447;DHT22;3765;47.962;7.952;2023-03-23T00:49:11;13.10;59.10
7447;DHT22;3765;47.962;7.952;2023-03-23T00:51:39;13.20;58.90
7447;DHT22;3765;47.962;7.952;2023-03-23T00:54:08;13.30;58.60
7447;DHT22;3765;47.962;7.952;2023-03-23T00:56:36;13.60;58.20
7447;DHT22;3765;47.962;7.952;2023-03-23T00:59:04;14.00;57.50
7447;DHT22;3765;47.962;7.952;2023-03-23T01:01:32;14.20;57.50
7447;DHT22;3765;47.962;7.952;2023-03-23T01:04:00;14.50;56.60
7447;DHT22;3765;47.962;7.952;2023-03-23T01:06:30;14.80;55.30
7447;DHT22;3765;47.962;7.952;2023-03-23T01:08:58;15.00;55.40
7447;DHT22;3765;47.962;7.952;2023-03-23T01:11:27;15.20;54.80
7447;DHT22;3765;47.962;7.952;2023-03-23T01:13:54;15.20;54.70
7447;DHT22;3765;47.962;7.952;2023-03-23T01:16:25;15.00;54.70
7447;DHT22;3765;47.962;7.952;2023-03-23T01:18:53;15.00;55.00
7447;DHT22;3765;47.962;7.952;2023-03-23T01:21:23;15.10;54.40
7447;DHT22;3765;47.962;7.952;2023-03-23T01:24:06;15.20;54.30
7447;DHT22;3765;47.962;7.952;2023-03-23T01:26:37;15.20;54.50
7447;DHT22;3765;47.962;7.952;2023-03-23T01:29:11;15.10;54.10
7447;DHT22;3765;47.962;7.952;2023-03-23T01:31:40;15.00;54.20
7447;DHT22;3765;47.962;7.952;2023-03-23T01:34:10;15.00;54.00
7447;DHT22;3765;47.962;7.952;2023-03-23T01:36:38;15.00;54.10
7447;DHT22;3765;47.962;7.952;2023-03-23T01:39:08;14.90;54.10
7447;DHT22;3765;47.962;7.952;2023-03-23T01:41:55;14.90;54.30
7447;DHT22;3765;47.962;7.952;2023-03-23T01:47:28;15.30;53.00
7447;DHT22;3765;47.962;7.952;2023-03-23T01:49:57;15.30;52.80
7447;DHT22;3765;47.962;7.952;2023-03-23T01:52:27;15.30;52.70
7447;DHT22;3765;47.962;7.952;2023-03-23T01:54:57;15.40;52.70
7447;DHT22;3765;47.962;7.952;2023-03-23T01:57:29;15.40;52.50
7447;DHT22;3765;47.962;7.952;2023-03-23T02:00:03;15.40;52.30
7447;DHT22;3765;47.962;7.952;2023-03-23T02:02:42;15.40;52.00
7447;DHT22;3765;47.962;7.952;2023-03-23T02:05:15;15.40;51.90
7447;DHT22;3765;47.962;7.952;2023-03-23T02:07:49;15.30;52.00
7447;DHT22;3765;47.962;7.952;2023-03-23T02:10:19;15.50;51.40
7447;DHT22;3765;47.962;7.952;2023-03-23T02:12:50;15.40;51.40
7447;DHT22;3765;47.962;7.952;2023-03-23T02:15:21;15.50;50.90
7447;DHT22;3765;47.962;7.952;2023-03-23T02:17:55;15.60;50.60
7447;DHT22;3765;47.962;7.952;2023-03-23T02:26:53;15.90;49.10
7447;DHT22;3765;47.962;7.952;2023-03-23T02:35:54;15.90;49.00
7447;DHT22;3765;47.962;7.952;2023-03-23T02:38:31;15.80;48.70
7447;DHT22;3765;47.962;7.952;2023-03-23T02:41:02;15.80;48.70
7447;DHT22;3765;47.962;7.952;2023-03-23T02:43:33;15.80;48.50
7447;DHT22;3765;47.962;7.952;2023-03-23T02:46:08;15.80;48.60
7447;DHT22;3765;47.962;7.952;2023-03-23T02:48:44;15.70;48.80
7447;DHT22;3765;47.962;7.952;2023-03-23T02:51:31;15.50;48.80
7447;DHT22;3765;47.962;7.952;2023-03-23T02:54:03;15.50;48.80
7447;DHT22;3765;47.962;7.952;2023-03-23T02:56:34;15.60;48.70
7447;DHT22;3765;47.962;7.952;2023-03-23T02:59:03;15.60;48.60
7447;DHT22;3765;47.962;7.952;2023-03-23T03:02:01;15.50;48.80
7447;DHT22;3765;47.962;7.952;2023-03-23T03:04:34;15.50;48.70
7447;DHT22;3765;47.962;7.952;2023-03-23T03:09:55;15.40;48.70
7447;DHT22;3765;47.962;7.952;2023-03-23T03:12:32;15.40;48.70
7447;DHT22;3765;47.962;7.952;2023-03-23T03:15:11;15.30;48.90
7447;DHT22;3765;47.962;7.952;2023-03-23T03:17:43;15.30;49.00
7447;DHT22;3765;47.962;7.952;2023-03-23T03:20:14;15.30;48.90
7447;DHT22;3765;47.962;7.952;2023-03-23T03:22:51;15.30;48.90
7447;DHT22;3765;47.962;7.952;2023-03-23T03:25:21;15.30;48.90
7447;DHT22;3765;47.962;7.952;2023-03-23T03:27:56;15.40;48.70
7447;DHT22;3765;47.962;7.952;2023-03-23T03:30:28;15.30;48.90
7447;DHT22;3765;47.962;7.952;2023-03-23T03:33:04;15.30;48.90
7447;DHT22;3765;47.962;7.952;2023-03-23T03:35:37;15.10;49.10
7447;DHT22;3765;47.962;7.952;2023-03-23T03:38:12;15.20;49.20
7447;DHT22;3765;47.962;7.952;2023-03-23T03:40:42;15.20;49.10
7447;DHT22;3765;47.962;7.952;2023-03-23T03:43:17;15.20;49.20
7447;DHT22;3765;47.962;7.952;2023-03-23T03:45:53;15.10;49.10
7447;DHT22;3765;47.962;7.952;2023-03-23T03:48:23;15.00;49.30
7447;DHT22;3765;47.962;7.952;2023-03-23T03:50:53;15.00;49.40
7447;DHT22;3765;47.962;7.952;2023-03-23T03:53:30;15.10;49.50
7447;DHT22;3765;47.962;7.952;2023-03-23T03:56:03;15.10;49.50
7447;DHT22;3765;47.962;7.952;2023-03-23T03:58:32;15.00;49.60
7447;DHT22;3765;47.962;7.952;2023-03-23T04:01:02;14.90;49.60
7447;DHT22;3765;47.962;7.952;2023-03-23T04:03:33;15.00;49.40
7447;DHT22;3765;47.962;7.952;2023-03-23T04:06:04;15.10;49.30
7447;DHT22;3765;47.962;7.952;2023-03-23T04:08:38;15.00;49.40
7447;DHT22;3765;47.962;7.952;2023-03-23T04:11:07;14.90;49.60
7447;DHT22;3765;47.962;7.952;2023-03-23T04:13:36;14.90;49.60
7447;DHT22;3765;47.962;7.952;2023-03-23T04:16:06;14.90;49.60
7447;DHT22;3765;47.962;7.952;2023-03-23T04:18:36;14.80;49.70
7447;DHT22;3765;47.962;7.952;2023-03-23T04:21:05;14.90;49.60
7447;DHT22;3765;47.962;7.952;2023-03-23T04:23:42;14.90;49.60
7447;DHT22;3765;47.962;7.952;2023-03-23T04:26:13;15.10;49.20
7447;DHT22;3765;47.962;7.952;2023-03-23T04:28:55;15.10;49.10
7447;DHT22;3765;47.962;7.952;2023-03-23T04:31:25;15.20;49.00
7447;DHT22;3765;47.962;7.952;2023-03-23T04:33:56;15.20;48.80
7447;DHT22;3765;47.962;7.952;2023-03-23T04:36:27;15.30;48.50
7447;DHT22;3765;47.962;7.952;2023-03-23T04:39:06;15.40;48.50
7447;DHT22;3765;47.962;7.952;2023-03-23T04:41:36;15.70;48.10
7447;DHT22;3765;47.962;7.952;2023-03-23T04:44:05;15.80;47.70
7447;DHT22;3765;47.962;7.952;2023-03-23T04:46:34;15.80;47.60
7447;DHT22;3765;47.962;7.952;2023-03-23T04:49:05;15.80;47.70
7447;DHT22;3765;47.962;7.952;2023-03-23T04:51:33;15.80;47.70
7447;DHT22;3765;47.962;7.952;2023-03-23T04:54:04;15.70;48.00
7447;DHT22;3765;47.962;7.952;2023-03-23T04:56:33;15.60;48.00
7447;DHT22;3765;47.962;7.952;2023-03-23T04:59:14;15.60;48.10
7447;DHT22;3765;47.962;7.952;2023-03-23T05:01:48;15.90;47.20
7447;DHT22;3765;47.962;7.952;2023-03-23T05:04:19;16.00;47.50
7447;DHT22;3765;47.962;7.952;2023-03-23T05:06:48;16.10;46.90
7447;DHT22;3765;47.962;7.952;2023-03-23T05:09:32;16.10;47.10
7447;DHT22;3765;47.962;7.952;2023-03-23T05:12:06;16.20;47.10
7447;DHT22;3765;47.962;7.952;2023-03-23T05:14:35;16.10;47.20
7447;DHT22;3765;47.962;7.952;2023-03-23T05:17:09;16.00;47.30
7447;DHT22;3765;47.962;7.952;2023-03-23T05:19:37;15.90;47.50
7447;DHT22;3765;47.962;7.952;2023-03-23T05:22:09;15.90;47.60
7447;DHT22;3765;47.962;7.952;2023-03-23T05:24:41;15.90;47.60
7447;DHT22;3765;47.962;7.952;2023-03-23T05:27:10;15.90;47.50
7447;DHT22;3765;47.962;7.952;2023-03-23T05:29:38;16.00;47.60
7447;DHT22;3765;47.962;7.952;2023-03-23T05:32:08;16.00;47.50
7447;DHT22;3765;47.962;7.952;2023-03-23T05:34:37;16.10;47.40
7447;DHT22;3765;47.962;7.952;2023-03-23T05:37:04;16.00;47.50
7447;DHT22;3765;47.962;7.952;2023-03-23T05:39:33;15.90;47.60
7447;DHT22;3765;47.962;7.952;2023-03-23T05:42:15;15.80;47.80
7447;DHT22;3765;47.962;7.952;2023-03-23T05:44:45;15.80;47.90
7447;DHT22;3765;47.962;7.952;2023-03-23T05:47:14;15.80;47.90
7447;DHT22;3765;47.962;7.952;2023-03-23T05:49:44;15.80;48.00
7447;DHT22;3765;47.962;7.952;2023-03-23T05:52:21;15.80;48.10
7447;DHT22;3765;47.962;7.952;2023-03-23T05:54:50;15.80;48.20
7447;DHT22;3765;47.962;7.952;2023-03-23T05:57:19;15.90;48.30
7447;DHT22;3765;47.962;7.952;2023-03-23T05:59:50;15.80;48.10
7447;DHT22;3765;47.962;7.952;2023-03-23T06:02:26;15.90;48.20
7447;DHT22;3765;47.962;7.952;2023-03-23T06:04:56;15.80;48.30
7447;DHT22;3765;47.962;7.952;2023-03-23T06:07:24;15.80;48.40
7447;DHT22;3765;47.962;7.952;2023-03-23T06:09:53;15.80;48.30
7447;DHT22;3765;47.962;7.952;2023-03-23T06:12:40;15.80;48.30
7447;DHT22;3765;47.962;7.952;2023-03-23T06:15:09;15.80;48.50
7447;DHT22;3765;47.962;7.952;2023-03-23T06:17:40;15.80;48.50
7447;DHT22;3765;47.962;7.952;2023-03-23T06:20:11;15.70;48.70
7447;DHT22;3765;47.962;7.952;2023-03-23T06:22:39;15.60;48.90
7447;DHT22;3765;47.962;7.952;2023-03-23T06:25:11;15.60;49.00
7447;DHT22;3765;47.962;7.952;2023-03-23T06:27:41;15.60;49.20
7447;DHT22;3765;47.962;7.952;2023-03-23T06:30:12;15.60;49.30
7447;DHT22;3765;47.962;7.952;2023-03-23T06:32:47;15.50;49.70
7447;DHT22;3765;47.962;7.952;2023-03-23T06:35:16;15.50;49.90
7447;DHT22;3765;47.962;7.952;2023-03-23T06:37:44;15.40;50.20
7447;DHT22;3765;47.962;7.952;2023-03-23T06:40:16;15.30;50.30
7447;DHT22;3765;47.962;7.952;2023-03-23T06:42:48;15.30;50.50
7447;DHT22;3765;47.962;7.952;2023-03-23T06:45:17;15.40;50.60
7447;DHT22;3765;47.962;7.952;2023-03-23T06:47:52;15.40;50.40
7447;DHT22;3765;47.962;7.952;2023-03-23T06:50:20;15.50;50.40
7447;DHT22;3765;47.962;7.952;2023-03-23T06:52:49;15.60;50.40
7447;DHT22;3765;47.962;7.952;2023-03-23T06:55:18;15.60;50.30
7447;DHT22;3765;47.962;7.952;2023-03-23T06:57:47;15.60;50.40
7447;DHT22;3765;47.962;7.952;2023-03-23T07:00:14;15.60;50.20
7447;DHT22;3765;47.962;7.952;2023-03-23T07:02:42;15.60;50.30
7447;DHT22;3765;47.962;7.952;2023-03-23T07:05:11;15.60;50.10
7447;DHT22;3765;47.962;7.952;2023-03-23T07:07:42;15.70;50.10
7447;DHT22;3765;47.962;7.952;2023-03-23T07:10:18;15.60;50.20
7447;DHT22;3765;47.962;7.952;2023-03-23T07:12:47;15.60;50.30
7447;DHT22;3765;47.962;7.952;2023-03-23T07:15:15;15.50;50.40
7447;DHT22;3765;47.962;7.952;2023-03-23T07:17:43;15.50;50.20
7447;DHT22;3765;47.962;7.952;2023-03-23T07:20:12;15.50;50.30
7447;DHT22;3765;47.962;7.952;2023-03-23T07:22:41;15.50;50.70
7447;DHT22;3765;47.962;7.952;2023-03-23T07:25:08;15.50;50.80
7447;DHT22;3765;47.962;7.952;2023-03-23T07:27:36;15.50;51.10
7447;DHT22;3765;47.962;7.952;2023-03-23T07:30:33;15.50;51.10
7447;DHT22;3765;47.962;7.952;2023-03-23T07:33:04;15.60;51.40
7447;DHT22;3765;47.962;7.952;2023-03-23T07:35:31;15.50;51.70
7447;DHT22;3765;47.962;7.952;2023-03-23T07:38:01;15.50;51.60
7447;DHT22;3765;47.962;7.952;2023-03-23T07:40:29;15.50;51.70
7447;DHT22;3765;47.962;7.952;2023-03-23T07:43:00;15.70;52.00
7447;DHT22;3765;47.962;7.952;2023-03-23T07:45:39;15.70;52.00
7447;DHT22;3765;47.962;7.952;2023-03-23T07:48:07;15.60;51.90
7447;DHT22;3765;47.962;7.952;2023-03-23T07:50:35;15.50;52.70
7447;DHT22;3765;47.962;7.952;2023-03-23T07:53:06;15.50;53.00
7447;DHT22;3765;47.962;7.952;2023-03-23T07:55:47;15.30;53.20
7447;DHT22;3765;47.962;7.952;2023-03-23T07:58:15;15.30;53.50
7447;DHT22;3765;47.962;7.952;2023-03-23T08:00:52;15.20;54.10
7447;DHT22;3765;47.962;7.952;2023-03-23T08:03:23;15.20;54.20
7447;DHT22;3765;47.962;7.952;2023-03-23T08:05:57;15.20;54.70
7447;DHT22;3765;47.962;7.952;2023-03-23T08:08:28;15.20;55.20
7447;DHT22;3765;47.962;7.952;2023-03-23T08:10:57;15.10;55.40
7447;DHT22;3765;47.962;7.952;2023-03-23T08:13:25;14.90;56.00
7447;DHT22;3765;47.962;7.952;2023-03-23T08:15:59;14.80;56.90
7447;DHT22;3765;47.962;7.952;2023-03-23T08:18:30;14.60;56.90
7447;DHT22;3765;47.962;7.952;2023-03-23T08:21:01;14.50;58.00
7447;DHT22;3765;47.962;7.952;2023-03-23T08:23:31;14.60;58.10
7447;DHT22;3765;47.962;7.952;2023-03-23T08:25:58;14.60;58.60
7447;DHT22;3765;47.962;7.952;2023-03-23T08:28:30;14.50;58.50
7447;DHT22;3765;47.962;7.952;2023-03-23T08:31:13;14.40;59.10
7447;DHT22;3765;47.962;7.952;2023-03-23T08:33:42;14.60;59.60
7447;DHT22;3765;47.962;7.952;2023-03-23T08:36:12;14.60;59.70
7447;DHT22;3765;47.962;7.952;2023-03-23T08:38:41;14.60;60.10
7447;DHT22;3765;47.962;7.952;2023-03-23T08:41:14;14.70;60.80
7447;DHT22;3765;47.962;7.952;2023-03-23T08:43:54;14.70;60.80
7447;DHT22;3765;47.962;7.952;2023-03-23T08:46:26;14.80;61.00
7447;DHT22;3765;47.962;7.952;2023-03-23T08:48:53;14.80;61.40
7447;DHT22;3765;47.962;7.952;2023-03-23T08:51:21;14.50;61.80
7447;DHT22;3765;47.962;7.952;2023-03-23T08:53:56;14.50;62.50
7447;DHT22;3765;47.962;7.952;2023-03-23T08:56:25;14.50;62.90
7447;DHT22;3765;47.962;7.952;2023-03-23T08:59:02;14.50;63.30
7447;DHT22;3765;47.962;7.952;2023-03-23T09:01:31;14.50;63.60
7447;DHT22;3765;47.962;7.952;2023-03-23T09:04:09;14.30;64.40
7447;DHT22;3765;47.962;7.952;2023-03-23T09:06:46;14.30;64.90
7447;DHT22;3765;47.962;7.952;2023-03-23T09:09:16;14.30;65.40
7447;DHT22;3765;47.962;7.952;2023-03-23T09:11:54;14.30;65.80
7447;DHT22;3765;47.962;7.952;2023-03-23T09:14:25;14.30;66.30
7447;DHT22;3765;47.962;7.952;2023-03-23T09:16:55;14.30;66.30
7447;DHT22;3765;47.962;7.952;2023-03-23T09:19:25;14.40;66.80
7447;DHT22;3765;47.962;7.952;2023-03-23T09:21:53;14.50;66.80
7447;DHT22;3765;47.962;7.952;2023-03-23T09:24:24;14.60;66.80
7447;DHT22;3765;47.962;7.952;2023-03-23T09:26:54;14.70;66.80
7447;DHT22;3765;47.962;7.952;2023-03-23T09:29:25;14.90;66.70
7447;DHT22;3765;47.962;7.952;2023-03-23T09:31:56;14.90;66.10
7447;DHT22;3765;47.962;7.952;2023-03-23T09:34:23;15.10;65.90
7447;DHT22;3765;47.962;7.952;2023-03-23T09:36:50;15.10;66.20
7447;DHT22;3765;47.962;7.952;2023-03-23T09:39:18;15.00;66.30
7447;DHT22;3765;47.962;7.952;2023-03-23T09:41:59;15.20;66.30
7447;DHT22;3765;47.962;7.952;2023-03-23T09:44:33;15.10;66.40
7447;DHT22;3765;47.962;7.952;2023-03-23T09:47:08;15.10;66.90
7447;DHT22;3765;47.962;7.952;2023-03-23T09:49:41;15.00;66.90
7447;DHT22;3765;47.962;7.952;2023-03-23T09:52:11;15.10;66.90
7447;DHT22;3765;47.962;7.952;2023-03-23T09:54:42;15.30;66.60
7447;DHT22;3765;47.962;7.952;2023-03-23T09:57:14;15.50;66.40
7447;DHT22;3765;47.962;7.952;2023-03-23T09:59:49;15.60;66.00
7447;DHT22;3765;47.962;7.952;2023-03-23T10:02:26;15.60;65.20
7447;DHT22;3765;47.962;7.952;2023-03-23T10:04:56;15.60;63.80
7447;DHT22;3765;47.962;7.952;2023-03-23T10:07:29;15.70;63.10
7447;DHT22;3765;47.962;7.952;2023-03-23T10:10:00;15.80;63.00
7447;DHT22;3765;47.962;7.952;2023-03-23T10:12:36;15.80;63.00
7447;DHT22;3765;47.962;7.952;2023-03-23T10:15:14;15.80;63.20
7447;DHT22;3765;47.962;7.952;2023-03-23T10:17:47;16.00;63.50
7447;DHT22;3765;47.962;7.952;2023-03-23T10:20:23;16.00;63.70
7447;DHT22;3765;47.962;7.952;2023-03-23T10:23:01;16.20;62.70
7447;DHT22;3765;47.962;7.952;2023-03-23T10:25:31;16.30;61.50
7447;DHT22;3765;47.962;7.952;2023-03-23T10:28:04;16.60;60.80
7447;DHT22;3765;47.962;7.952;2023-03-23T10:30:37;16.60;60.50
7447;DHT22;3765;47.962;7.952;2023-03-23T10:33:13;16.80;60.50
7447;DHT22;3765;47.962;7.952;2023-03-23T10:35:45;17.10;60.50
7447;DHT22;3765;47.962;7.952;2023-03-23T10:38:17;17.30;59.50
7447;DHT22;3765;47.962;7.952;2023-03-23T10:40:49;17.50;58.80
7447;DHT22;3765;47.962;7.952;2023-03-23T10:43:18;17.70;58.20
7447;DHT22;3765;47.962;7.952;2023-03-23T10:45:49;17.90;57.60
7447;DHT22;3765;47.962;7.952;2023-03-23T10:48:28;18.30;56.80
7447;DHT22;3765;47.962;7.952;2023-03-23T10:51:00;18.30;55.90
7447;DHT22;3765;47.962;7.952;2023-03-23T10:53:33;18.30;55.50
7447;DHT22;3765;47.962;7.952;2023-03-23T10:56:16;18.20;54.70
7447;DHT22;3765;47.962;7.952;2023-03-23T10:58:53;18.30;54.40
7447;DHT22;3765;47.962;7.952;2023-03-23T11:01:29;18.20;53.60
7447;DHT22;3765;47.962;7.952;2023-03-23T11:03:58;18.30;53.10
7447;DHT22;3765;47.962;7.952;2023-03-23T11:06:29;18.10;51.90
7447;DHT22;3765;47.962;7.952;2023-03-23T11:09:03;18.20;52.60
7447;DHT22;3765;47.962;7.952;2023-03-23T11:11:38;18.50;52.30
7447;DHT22;3765;47.962;7.952;2023-03-23T11:14:17;18.70;51.20
7447;DHT22;3765;47.962;7.952;2023-03-23T11:16:49;18.50;50.20
7447;DHT22;3765;47.962;7.952;2023-03-23T11:19:24;18.50;50.60
7447;DHT22;3765;47.962;7.952;2023-03-23T11:21:52;18.60;50.30
7447;DHT22;3765;47.962;7.952;2023-03-23T11:24:22;19.10;50.20
7447;DHT22;3765;47.962;7.952;2023-03-23T11:26:50;19.10;49.90
7447;DHT22;3765;47.962;7.952;2023-03-23T11:29:20;19.20;49.70
7447;DHT22;3765;47.962;7.952;2023-03-23T11:31:50;19.30;49.50
7447;DHT22;3765;47.962;7.952;2023-03-23T11:34:20;19.40;49.00
7447;DHT22;3765;47.962;7.952;2023-03-23T11:36:50;19.50;49.00
7447;DHT22;3765;47.962;7.952;2023-03-23T11:39:23;19.30;48.90
7447;DHT22;3765;47.962;7.952;2023-03-23T11:41:51;19.40;48.60
7447;DHT22;3765;47.962;7.952;2023-03-23T11:44:21;19.30;48.30
7447;DHT22;3765;47.962;7.952;2023-03-23T11:47:02;19.30;48.40
7447;DHT22;3765;47.962;7.952;2023-03-23T11:49:41;19.40;48.00
7447;DHT22;3765;47.962;7.952;2023-03-23T11:52:15;19.60;47.80
7447;DHT22;3765;47.962;7.952;2023-03-23T11:54:52;19.80;47.80
7447;DHT22;3765;47.962;7.952;2023-03-23T11:57:21;19.90;47.40
7447;DHT22;3765;47.962;7.952;2023-03-23T11:59:50;20.10;47.00
7447;DHT22;3765;47.962;7.952;2023-03-23T12:02:30;20.20;47.00
7447;DHT22;3765;47.962;7.952;2023-03-23T12:05:19;20.30;46.80
7447;DHT22;3765;47.962;7.952;2023-03-23T12:07:59;20.20;46.50
7447;DHT22;3765;47.962;7.952;2023-03-23T12:10:34;19.80;46.50
7447;DHT22;3765;47.962;7.952;2023-03-23T12:13:12;19.60;46.30
7447;DHT22;3765;47.962;7.952;2023-03-23T12:15:50;19.80;46.60
7447;DHT22;3765;47.962;7.952;2023-03-23T12:18:23;20.00;46.40
7447;DHT22;3765;47.962;7.952;2023-03-23T12:21:04;20.20;46.40
7447;DHT22;3765;47.962;7.952;2023-03-23T12:23:41;20.30;45.90
7447;DHT22;3765;47.962;7.952;2023-03-23T12:26:17;20.40;45.60
7447;DHT22;3765;47.962;7.952;2023-03-23T12:28:59;20.10;45.70
7447;DHT22;3765;47.962;7.952;2023-03-23T12:31:32;19.80;45.80
7447;DHT22;3765;47.962;7.952;2023-03-23T12:34:09;20.10;45.60
7447;DHT22;3765;47.962;7.952;2023-03-23T12:36:49;20.00;45.40
7447;DHT22;3765;47.962;7.952;2023-03-23T12:39:44;19.60;45.40
7447;DHT22;3765;47.962;7.952;2023-03-23T12:42:20;19.40;45.50
7447;DHT22;3765;47.962;7.952;2023-03-23T12:44:52;19.60;45.30
7447;DHT22;3765;47.962;7.952;2023-03-23T12:47:38;19.40;45.30
7447;DHT22;3765;47.962;7.952;2023-03-23T12:50:15;19.20;45.30
7447;DHT22;3765;47.962;7.952;2023-03-23T12:52:49;19.00;45.30
7447;DHT22;3765;47.962;7.952;2023-03-23T12:55:22;18.80;45.40
7447;DHT22;3765;47.962;7.952;2023-03-23T12:57:55;18.70;45.50
7447;DHT22;3765;47.962;7.952;2023-03-23T13:00:28;18.60;45.60
7447;DHT22;3765;47.962;7.952;2023-03-23T13:03:01;18.50;45.50
7447;DHT22;3765;47.962;7.952;2023-03-23T13:05:36;18.40;45.70
7447;DHT22;3765;47.962;7.952;2023-03-23T13:08:10;18.20;45.80
7447;DHT22;3765;47.962;7.952;2023-03-23T13:10:45;18.20;45.80
7447;DHT22;3765;47.962;7.952;2023-03-23T13:13:18;18.10;45.70
7447;DHT22;3765;47.962;7.952;2023-03-23T13:16:01;18.00;45.80
7447;DHT22;3765;47.962;7.952;2023-03-23T13:18:39;18.00;45.70
7447;DHT22;3765;47.962;7.952;2023-03-23T13:21:14;17.90;45.70
7447;DHT22;3765;47.962;7.952;2023-03-23T13:23:45;17.70;46.00
7447;DHT22;3765;47.962;7.952;2023-03-23T13:26:18;17.60;46.30
7447;DHT22;3765;47.962;7.952;2023-03-23T13:28:55;17.70;46.40
7447;DHT22;3765;47.962;7.952;2023-03-23T13:31:26;17.60;46.40
7447;DHT22;3765;47.962;7.952;2023-03-23T13:34:04;17.80;47.10
7447;DHT22;3765;47.962;7.952;2023-03-23T13:36:35;17.90;47.00
7447;DHT22;3765;47.962;7.952;2023-03-23T13:39:05;17.90;46.90
7447;DHT22;3765;47.962;7.952;2023-03-23T13:41:46;17.90;47.00
7447;DHT22;3765;47.962;7.952;2023-03-23T13:44:23;18.00;47.10
7447;DHT22;3765;47.962;7.952;2023-03-23T13:47:03;18.00;47.30
7447;DHT22;3765;47.962;7.952;2023-03-23T13:49:32;18.00;47.00
7447;DHT22;3765;47.962;7.952;2023-03-23T13:52:06;17.80;46.50
7447;DHT22;3765;47.962;7.952;2023-03-23T13:54:46;18.00;46.70
7447;DHT22;3765;47.962;7.952;2023-03-23T13:57:35;18.10;46.80
7447;DHT22;3765;47.962;7.952;2023-03-23T14:00:24;18.20;46.60
7447;DHT22;3765;47.962;7.952;2023-03-23T14:02:59;18.20;46.70
7447;DHT22;3765;47.962;7.952;2023-03-23T14:05:32;18.00;46.80
7447;DHT22;3765;47.962;7.952;2023-03-23T14:08:02;18.10;46.90
7447;DHT22;3765;47.962;7.952;2023-03-23T14:10:38;18.10;47.20
7447;DHT22;3765;47.962;7.952;2023-03-23T14:13:16;17.90;47.10
7447;DHT22;3765;47.962;7.952;2023-03-23T14:15:55;17.70;47.20
7447;DHT22;3765;47.962;7.952;2023-03-23T14:18:25;17.50;46.80
7447;DHT22;3765;47.962;7.952;2023-03-23T14:20:53;17.40;47.40
7447;DHT22;3765;47.962;7.952;2023-03-23T14:23:20;17.50;47.90
7447;DHT22;3765;47.962;7.952;2023-03-23T14:25:56;17.50;47.60
7447;DHT22;3765;47.962;7.952;2023-03-23T14:28:32;17.60;47.50
7447;DHT22;3765;47.962;7.952;2023-03-23T14:31:03;17.60;47.20
7447;DHT22;3765;47.962;7.952;2023-03-23T14:33:30;17.60;47.30
7447;DHT22;3765;47.962;7.952;2023-03-23T14:35:59;17.60;47.40
7447;DHT22;3765;47.962;7.952;2023-03-23T14:38:27;17.70;47.30
7447;DHT22;3765;47.962;7.952;2023-03-23T14:41:01;17.60;47.30
7447;DHT22;3765;47.962;7.952;2023-03-23T14:43:29;17.60;47.10
7447;DHT22;3765;47.962;7.952;2023-03-23T14:46:01;17.60;47.20
7447;DHT22;3765;47.962;7.952;2023-03-23T14:48:29;17.60;47.20
7447;DHT22;3765;47.962;7.952;2023-03-23T14:50:58;17.70;47.10
7447;DHT22;3765;47.962;7.952;2023-03-23T14:53:32;17.60;46.90
7447;DHT22;3765;47.962;7.952;2023-03-23T14:56:01;17.50;47.10
7447;DHT22;3765;47.962;7.952;2023-03-23T14:58:30;17.50;47.30
7447;DHT22;3765;47.962;7.952;2023-03-23T15:01:02;17.50;47.50
7447;DHT22;3765;47.962;7.952;2023-03-23T15:03:34;17.60;47.50
7447;DHT22;3765;47.962;7.952;2023-03-23T15:06:05;17.60;47.50
7447;DHT22;3765;47.962;7.952;2023-03-23T15:08:34;17.60;47.50
7447;DHT22;3765;47.962;7.952;2023-03-23T15:11:07;17.50;47.50
7447;DHT22;3765;47.962;7.952;2023-03-23T15:13:36;17.50;47.70
7447;DHT22;3765;47.962;7.952;2023-03-23T15:16:11;17.60;47.90
7447;DHT22;3765;47.962;7.952;2023-03-23T15:18:40;17.70;47.80
7447;DHT22;3765;47.962;7.952;2023-03-23T15:21:22;17.50;47.80
7447;DHT22;3765;47.962;7.952;2023-03-23T15:23:51;17.40;48.00
7447;DHT22;3765;47.962;7.952;2023-03-23T15:26:26;17.50;48.00
7447;DHT22;3765;47.962;7.952;2023-03-23T15:29:14;17.40;48.00
7447;DHT22;3765;47.962;7.952;2023-03-23T15:31:45;17.40;48.10
7447;DHT22;3765;47.962;7.952;2023-03-23T15:34:27;17.30;48.00
7447;DHT22;3765;47.962;7.952;2023-03-23T15:36:58;17.30;48.10
7447;DHT22;3765;47.962;7.952;2023-03-23T15:39:26;17.30;48.30
7447;DHT22;3765;47.962;7.952;2023-03-23T15:41:54;17.20;48.40
7447;DHT22;3765;47.962;7.952;2023-03-23T15:44:33;17.30;48.60
7447;DHT22;3765;47.962;7.952;2023-03-23T15:47:19;17.30;48.60
7447;DHT22;3765;47.962;7.952;2023-03-23T15:49:58;17.30;48.60
7447;DHT22;3765;47.962;7.952;2023-03-23T15:52:25;17.30;48.70
7447;DHT22;3765;47.962;7.952;2023-03-23T15:54:52;17.30;48.90
7447;DHT22;3765;47.962;7.952;2023-03-23T15:57:19;17.30;48.90
7447;DHT22;3765;47.962;7.952;2023-03-23T15:59:46;17.30;48.90
7447;DHT22;3765;47.962;7.952;2023-03-23T16:02:22;17.30;49.00
7447;DHT22;3765;47.962;7.952;2023-03-23T16:04:51;17.30;49.10
7447;DHT22;3765;47.962;7.952;2023-03-23T16:07:22;17.30;48.80
7447;DHT22;3765;47.962;7.952;2023-03-23T16:09:51;17.30;48.60
7447;DHT22;3765;47.962;7.952;2023-03-23T16:12:19;17.30;48.60
7447;DHT22;3765;47.962;7.952;2023-03-23T16:14:47;17.30;48.50
7447;DHT22;3765;47.962;7.952;2023-03-23T16:17:18;17.20;48.60
7447;DHT22;3765;47.962;7.952;2023-03-23T16:19:48;17.20;48.80
7447;DHT22;3765;47.962;7.952;2023-03-23T16:22:17;17.10;48.80
7447;DHT22;3765;47.962;7.952;2023-03-23T16:24:45;17.10;48.90
7447;DHT22;3765;47.962;7.952;2023-03-23T16:27:13;17.10;48.90
7447;DHT22;3765;47.962;7.952;2023-03-23T16:29:41;17.10;49.10
7447;DHT22;3765;47.962;7.952;2023-03-23T16:32:29;17.10;48.80
7447;DHT22;3765;47.962;7.952;2023-03-23T16:34:57;17.10;48.90
7447;DHT22;3765;47.962;7.952;2023-03-23T16:37:26;17.10;49.00
7447;DHT22;3765;47.962;7.952;2023-03-23T16:39:59;17.10;49.10
7447;DHT22;3765;47.962;7.952;2023-03-23T16:42:27;17.00;49.20
7447;DHT22;3765;47.962;7.952;2023-03-23T16:44:55;16.90;49.40
7447;DHT22;3765;47.962;7.952;2023-03-23T16:47:24;16.90;49.50
7447;DHT22;3765;47.962;7.952;2023-03-23T16:49:52;16.80;49.60
7447;DHT22;3765;47.962;7.952;2023-03-23T16:52:21;16.80;49.60
7447;DHT22;3765;47.962;7.952;2023-03-23T16:54:50;16.80;49.80